createdAt,value
2024-03-13T00:01:16.621Z,101323.75
2024-03-13T00:03:50.745Z,101331.41
2024-03-13T00:06:19.284Z,101318.91
2024-03-13T00:08:48.902Z,101331.00
2024-03-13T00:11:20.042Z,101331.00
2024-03-13T00:13:50.141Z,101328.56
2024-03-13T00:16:29.019Z,101325.34
2024-03-13T00:18:57.308Z,101326.56
2024-03-13T00:21:30.038Z,101334.63
2024-03-13T00:24:00.043Z,101333.41
2024-03-13T00:26:28.038Z,101335.81
2024-03-13T00:28:59.230Z,101338.66
2024-03-13T00:31:36.388Z,101341.47
2024-03-13T00:34:06.034Z,101337.44
2024-03-13T00:36:34.097Z,101338.25
2024-03-13T00:39:08.408Z,101341.88
2024-03-13T00:41:36.748Z,101335.00
2024-03-13T00:44:10.833Z,101340.66
2024-03-13T00:46:43.252Z,101338.19
2024-03-13T00:49:13.481Z,101335.81
2024-03-13T00:51:46.659Z,101338.19
2024-03-13T00:54:14.916Z,101343.09
2024-03-13T00:56:49.401Z,101339.03
2024-03-13T00:59:20.228Z,101336.63
2024-03-13T01:01:49.965Z,101340.25
2024-03-13T01:04:20.127Z,101334.63
2024-03-13T01:06:50.880Z,101339.03
2024-03-13T01:09:25.053Z,101339.84
2024-03-13T01:11:56.179Z,101339.84
2024-03-13T01:14:24.401Z,101334.22
2024-03-13T01:16:56.787Z,101335.81
2024-03-13T01:19:28.012Z,101337.84
2024-03-13T01:22:04.831Z,101334.22
2024-03-13T01:24:33.477Z,101330.94
2024-03-13T01:27:01.875Z,101318.47
2024-03-13T01:29:31.656Z,101332.56
2024-03-13T01:32:09.322Z,101332.56
2024-03-13T01:34:37.422Z,101286.72
2024-03-13T01:37:23.256Z,101331.38
2024-03-13T01:39:53.364Z,101324.09
2024-03-13T01:42:45.105Z,101329.38
2024-03-13T01:45:45.845Z,101332.56
2024-03-13T01:48:33.215Z,101332.56
2024-03-13T01:51:18.635Z,101334.22
2024-03-13T01:54:04.183Z,101331.75
2024-03-13T01:56:32.842Z,101331.75
2024-03-13T01:59:11.321Z,101330.94
2024-03-13T02:01:56.842Z,101329.31
2024-03-13T02:04:26.474Z,101324.50
2024-03-13T02:06:54.737Z,101330.94
2024-03-13T02:09:25.978Z,101319.66
2024-03-13T02:11:55.159Z,101313.22
2024-03-13T02:14:24.430Z,101323.69
2024-03-13T02:16:58.984Z,101316.84
2024-03-13T02:19:38.213Z,101327.69
2024-03-13T02:22:07.393Z,101330.94
2024-03-13T02:24:35.686Z,101328.94
2024-03-13T02:27:07.816Z,101324.09
2024-03-13T02:29:36.144Z,101318.03
2024-03-13T02:32:08.253Z,101325.75
2024-03-13T02:34:40.987Z,101317.28
2024-03-13T02:37:11.204Z,101330.94
2024-03-13T02:39:41.535Z,101326.09
2024-03-13T02:42:15.532Z,101330.13
2024-03-13T02:44:45.076Z,101321.66
2024-03-13T02:47:15.586Z,101324.50
2024-03-13T02:49:45.817Z,101330.94
2024-03-13T02:52:15.184Z,101325.69
2024-03-13T02:54:53.725Z,101324.88
2024-03-13T02:57:22.135Z,101319.25
2024-03-13T02:59:52.234Z,101320.06
2024-03-13T03:02:21.632Z,101323.69
2024-03-13T03:04:53.877Z,101316.84
2024-03-13T03:07:25.276Z,101308.38
2024-03-13T03:09:57.113Z,101320.88
2024-03-13T03:12:28.486Z,101326.50
2024-03-13T03:15:01.775Z,101328.50
2024-03-13T03:17:34.646Z,101326.50
2024-03-13T03:20:04.911Z,101322.88
2024-03-13T03:22:35.081Z,101327.69
2024-03-13T03:25:04.892Z,101332.16
2024-03-13T03:27:37.253Z,101328.91
2024-03-13T03:30:08.582Z,101335.78
2024-03-13T03:32:42.951Z,101332.53
2024-03-13T03:35:12.116Z,101324.47
2024-03-13T03:37:43.047Z,101328.50
2024-03-13T03:40:17.759Z,101327.69
2024-03-13T03:42:48.066Z,101324.06
2024-03-13T03:45:18.153Z,101332.53
2024-03-13T03:47:57.636Z,101324.47
2024-03-13T03:50:34.122Z,101312.41
2024-03-13T03:53:08.805Z,101322.06
2024-03-13T03:55:38.676Z,101321.66
2024-03-13T03:58:09.495Z,101317.19
2024-03-13T04:00:47.535Z,101311.19
2024-03-13T04:03:15.769Z,101316.00
2024-03-13T04:05:44.004Z,101317.63
2024-03-13T04:08:12.107Z,101319.25
2024-03-13T04:10:40.610Z,101326.09
2024-03-13T04:13:09.744Z,101335.75
2024-03-13T04:15:48.829Z,101326.84
2024-03-13T04:18:19.213Z,101326.09
2024-03-13T04:20:50.666Z,101333.28
2024-03-13T04:23:22.493Z,101331.72
2024-03-13T04:25:54.918Z,101339.75
2024-03-13T04:28:24.790Z,101341.41
2024-03-13T04:30:58.917Z,101335.75
2024-03-13T04:33:27.182Z,101342.56
2024-03-13T04:36:00.066Z,101336.94
2024-03-13T04:38:29.911Z,101344.97
2024-03-13T04:41:01.630Z,101341.34
2024-03-13T04:43:33.646Z,101347.78
2024-03-13T04:46:19.673Z,101349.41
2024-03-13T04:48:51.423Z,101334.88
2024-03-13T04:51:24.319Z,101337.72
2024-03-13T04:53:55.694Z,101345.72
2024-03-13T04:56:29.890Z,101338.91
2024-03-13T04:58:58.997Z,101340.53
2024-03-13T05:01:28.798Z,101344.56
2024-03-13T05:04:01.600Z,101355.84
2024-03-13T05:06:32.141Z,101354.19
2024-03-13T05:09:05.063Z,101353.44
2024-03-13T05:11:35.305Z,101346.94
2024-03-13T05:14:08.065Z,101350.19
2024-03-13T05:16:36.448Z,101344.97
2024-03-13T05:19:04.762Z,101346.16
2024-03-13T05:21:44.167Z,101353.81
2024-03-13T05:24:15.037Z,101346.94
2024-03-13T05:26:44.103Z,101347.78
2024-03-13T05:29:16.762Z,101351.00
2024-03-13T05:31:47.333Z,101352.22
2024-03-13T05:34:16.491Z,101358.22
2024-03-13T05:36:49.255Z,101353.38
2024-03-13T05:39:19.572Z,101356.59
2024-03-13T05:41:52.342Z,101355.84
2024-03-13T05:44:21.790Z,101358.22
2024-03-13T05:46:57.168Z,101361.03
2024-03-13T05:49:26.472Z,101368.72
2024-03-13T05:51:58.202Z,101371.09
2024-03-13T05:54:29.566Z,101362.66
2024-03-13T05:57:00.718Z,101367.13
2024-03-13T05:59:30.086Z,101363.03
2024-03-13T06:02:01.231Z,101368.72
2024-03-13T06:04:35.837Z,101363.84
2024-03-13T06:07:06.955Z,101364.66
2024-03-13T06:09:37.779Z,101373.50
2024-03-13T06:12:08.851Z,101371.09
2024-03-13T06:14:39.017Z,101388.47
2024-03-13T06:17:11.765Z,101379.22
2024-03-13T06:19:42.254Z,101380.03
2024-03-13T06:22:13.854Z,101373.94
2024-03-13T06:24:42.257Z,101378.41
2024-03-13T06:27:18.159Z,101388.03
2024-03-13T06:30:02.032Z,101392.50
2024-03-13T06:32:31.386Z,101389.69
2024-03-13T06:35:05.990Z,101395.31
2024-03-13T06:37:37.022Z,101391.31
2024-03-13T06:40:09.799Z,101393.69
2024-03-13T06:42:39.686Z,101391.31
2024-03-13T06:45:11.081Z,101396.94
2024-03-13T06:47:42.653Z,101398.56
2024-03-13T06:50:10.899Z,101396.94
2024-03-13T06:52:41.474Z,101396.94
2024-03-13T06:55:11.841Z,101404.19
2024-03-13T06:57:40.167Z,101405.81
2024-03-13T07:00:08.750Z,101401.81
2024-03-13T07:02:39.486Z,101409.44
2024-03-13T07:05:10.848Z,101411.47
2024-03-13T07:07:39.888Z,101400.19
2024-03-13T07:10:11.914Z,101405.81
2024-03-13T07:12:43.863Z,101408.25
2024-03-13T07:15:12.551Z,101417.09
2024-03-13T07:17:45.200Z,101411.47
2024-03-13T07:20:15.734Z,101419.50
2024-03-13T07:22:45.661Z,101419.50
2024-03-13T07:25:17.487Z,101418.31
2024-03-13T07:27:52.719Z,101427.50
2024-03-13T07:30:28.415Z,101422.31
2024-03-13T07:32:56.839Z,101424.34
2024-03-13T07:35:27.921Z,101416.69
2024-03-13T07:37:57.800Z,101417.50
2024-03-13T07:40:27.897Z,101423.53
2024-03-13T07:42:59.420Z,101427.50
2024-03-13T07:45:29.523Z,101422.31
2024-03-13T07:48:00.630Z,101418.69
2024-03-13T07:50:29.084Z,101416.69
2024-03-13T07:52:57.572Z,101419.13
2024-03-13T07:55:33.781Z,101428.78
2024-03-13T07:58:04.367Z,101424.75
2024-03-13T08:00:37.514Z,101426.78
2024-03-13T08:03:07.338Z,101438.06
2024-03-13T08:05:39.127Z,101432.81
2024-03-13T09:06:37.736Z,101426.03
2024-03-13T09:09:11.344Z,101427.19
2024-03-13T09:11:40.762Z,101431.66
2024-03-13T09:14:09.988Z,101434.03
2024-03-13T09:16:38.441Z,101428.84
2024-03-13T09:19:07.381Z,101427.19
2024-03-13T09:21:38.637Z,101430.00
2024-03-13T09:24:09.340Z,101431.66
2024-03-13T09:26:39.634Z,101423.63
2024-03-13T09:29:14.724Z,101419.53
2024-03-13T09:31:47.262Z,101423.56
2024-03-13T09:34:19.119Z,101424.38
2024-03-13T09:36:50.539Z,101415.09
2024-03-13T09:39:19.042Z,101413.09
2024-03-13T09:41:47.655Z,101407.44
2024-03-13T09:44:17.592Z,101413.09
2024-03-13T09:46:50.324Z,101409.09
2024-03-13T09:49:26.923Z,101417.09
2024-03-13T09:51:55.487Z,101417.09
2024-03-13T09:54:25.379Z,101405.81
2024-03-13T09:56:55.891Z,101405.81
2024-03-13T09:59:28.077Z,101409.03
2024-03-13T10:02:01.098Z,101413.09
2024-03-13T10:04:30.733Z,101413.88
2024-03-13T10:07:02.199Z,101410.72
2024-03-13T10:09:36.708Z,101410.72
2024-03-13T10:12:06.635Z,101412.34
2024-03-13T10:14:36.758Z,101410.72
2024-03-13T10:17:07.272Z,101406.69
2024-03-13T10:19:38.599Z,101412.72
2024-03-13T10:22:09.324Z,101401.81
2024-03-13T10:24:43.680Z,101390.50
2024-03-13T10:27:12.425Z,101387.28
2024-03-13T10:29:44.775Z,101384.03
2024-03-13T10:32:17.839Z,101378.00
2024-03-13T10:34:50.728Z,101387.28
2024-03-13T10:37:20.123Z,101383.69
2024-03-13T10:39:50.205Z,101383.25
2024-03-13T10:42:19.431Z,101374.38
2024-03-13T10:44:52.350Z,101371.16
2024-03-13T10:47:25.208Z,101372.78
2024-03-13T10:49:55.841Z,101369.59
2024-03-13T10:52:27.528Z,101367.94
2024-03-13T10:54:58.298Z,101370.34
2024-03-13T10:57:33.999Z,101371.16
2024-03-13T11:00:02.638Z,101368.72
2024-03-13T11:02:33.959Z,101374.38
2024-03-13T11:05:05.413Z,101376.75
2024-03-13T11:07:38.155Z,101384.03
2024-03-13T11:10:07.109Z,101367.13
2024-03-13T11:12:39.468Z,101368.72
2024-03-13T11:15:11.487Z,101379.63
2024-03-13T11:17:41.144Z,101376.00
2024-03-13T11:20:19.112Z,101378.81
2024-03-13T11:22:47.707Z,101370.34
2024-03-13T11:25:19.002Z,101373.59
2024-03-13T11:27:47.367Z,101370.41
2024-03-13T11:30:19.295Z,101369.59
2024-03-13T11:32:51.638Z,101371.63
2024-03-13T11:35:23.643Z,101365.56
2024-03-13T11:37:52.139Z,101371.25
2024-03-13T11:40:22.690Z,101364.78
2024-03-13T11:42:52.592Z,101362.31
2024-03-13T11:45:27.567Z,101365.56
2024-03-13T11:48:02.494Z,101362.75
2024-03-13T11:50:32.500Z,101358.31
2024-03-13T11:53:09.597Z,101355.09
2024-03-13T11:55:48.992Z,101349.47
2024-03-13T11:58:20.208Z,101349.06
2024-03-13T12:00:48.670Z,101336.59
2024-03-13T12:03:19.624Z,101329.75
2024-03-13T12:05:53.795Z,101325.75
2024-03-13T12:08:24.087Z,101322.94
2024-03-13T12:11:00.224Z,101317.31
2024-03-13T12:13:33.552Z,101316.94
2024-03-13T12:16:01.914Z,101318.97
2024-03-13T12:18:31.380Z,101309.31
2024-03-13T12:21:00.836Z,101299.66
2024-03-13T12:23:31.148Z,101310.94
2024-03-13T12:26:02.575Z,101314.13
2024-03-13T12:28:38.225Z,101314.59
2024-03-13T12:31:10.149Z,101302.50
2024-03-13T12:33:44.719Z,101300.03
2024-03-13T12:36:15.032Z,101302.03
2024-03-13T12:39:13.737Z,101298.47
2024-03-13T12:41:44.391Z,101305.31
2024-03-13T12:44:16.552Z,101295.63
2024-03-13T12:46:47.621Z,101302.91
2024-03-13T12:49:19.031Z,101301.69
2024-03-13T12:51:54.001Z,101290.81
2024-03-13T12:54:22.325Z,101295.66
2024-03-13T12:56:51.834Z,101295.28
2024-03-13T12:59:28.607Z,101296.47
2024-03-13T13:01:56.836Z,101294.84
2024-03-13T13:04:27.481Z,101289.19
2024-03-13T13:06:57.140Z,101299.69
2024-03-13T13:09:27.090Z,101289.19
2024-03-13T13:12:00.049Z,101288.44
2024-03-13T13:14:33.270Z,101271.47
2024-03-13T13:17:05.373Z,101273.09
2024-03-13T13:19:34.280Z,101275.53
2024-03-13T13:22:08.761Z,101268.25
2024-03-13T13:24:37.062Z,101264.66
2024-03-13T13:27:07.180Z,101269.91
2024-03-13T13:29:35.758Z,101268.72
2024-03-13T13:32:07.327Z,101265.88
2024-03-13T13:34:37.218Z,101265.06
2024-03-13T13:37:16.417Z,101265.06
2024-03-13T13:39:47.115Z,101257.81
2024-03-13T13:42:17.089Z,101258.59
2024-03-13T13:44:52.686Z,101257.81
2024-03-13T13:47:23.869Z,101261.78
2024-03-13T13:49:56.621Z,101263.41
2024-03-13T13:52:35.591Z,101257.34
2024-03-13T13:55:08.160Z,101255.34
2024-03-13T13:57:50.285Z,101252.88
2024-03-13T14:00:25.378Z,101251.25
2024-03-13T14:02:56.869Z,101255.28
2024-03-13T14:05:28.707Z,101246.81
2024-03-13T14:07:58.332Z,101250.44
2024-03-13T14:10:32.701Z,101255.28
2024-03-13T14:13:04.252Z,101252.06
2024-03-13T14:15:35.423Z,101250.84
2024-03-13T14:18:07.886Z,101239.97
2024-03-13T14:20:36.411Z,101244.75
2024-03-13T14:23:06.657Z,101248.41
2024-03-13T14:25:37.018Z,101248.03
2024-03-13T14:28:09.295Z,101236.75
2024-03-13T14:30:39.628Z,101242.38
2024-03-13T14:33:14.221Z,101247.22
2024-03-13T14:35:46.570Z,101243.16
2024-03-13T14:38:15.081Z,101246.41
2024-03-13T14:40:48.389Z,101245.22
2024-03-13T14:43:18.456Z,101240.38
2024-03-13T14:45:47.888Z,101239.13
2024-03-13T14:48:16.626Z,101235.50
2024-03-13T14:50:50.553Z,101240.72
2024-03-13T14:53:26.336Z,101232.25
2024-03-13T14:55:55.140Z,101241.53
2024-03-13T14:58:26.913Z,101230.25
2024-03-13T15:00:59.393Z,101241.53
2024-03-13T15:03:32.091Z,101238.31
2024-03-13T15:06:01.352Z,101237.50
2024-03-13T15:08:29.814Z,101239.13
2024-03-13T15:11:03.710Z,101234.28
2024-03-13T15:13:35.920Z,101235.88
2024-03-13T15:16:08.438Z,101236.66
2024-03-13T15:18:39.595Z,101242.72
2024-03-13T15:21:08.103Z,101239.13
2024-03-13T15:23:39.348Z,101242.78
2024-03-13T15:26:08.293Z,101253.22
2024-03-13T15:28:48.112Z,101241.56
2024-03-13T15:31:18.779Z,101241.94
2024-03-13T15:33:47.055Z,101255.25
2024-03-13T15:36:21.213Z,101247.97
2024-03-13T15:38:51.900Z,101250.41
2024-03-13T15:41:22.981Z,101247.16
2024-03-13T15:43:51.768Z,101250.41
2024-03-13T15:46:21.633Z,101241.53
2024-03-13T15:48:52.951Z,101241.53
2024-03-13T15:51:23.307Z,101236.31
2024-03-13T15:53:57.733Z,101241.94
2024-03-13T15:56:38.000Z,101239.13
2024-03-13T15:59:06.343Z,101241.53
2024-03-13T16:01:34.810Z,101244.34
2024-03-13T16:04:03.004Z,101244.34
2024-03-13T16:06:33.738Z,101245.56
2024-03-13T16:09:04.929Z,101244.75
2024-03-13T16:11:40.523Z,101249.59
2024-03-13T16:14:08.717Z,101246.38
2024-03-13T16:16:39.816Z,101239.91
2024-03-13T16:19:11.138Z,101247.16
2024-03-13T16:21:40.486Z,101249.56
2024-03-13T16:24:10.307Z,101240.72
2024-03-13T16:26:40.847Z,101239.91
2024-03-13T16:29:13.736Z,101241.53
2024-03-13T16:31:46.762Z,101244.75
2024-03-13T16:34:17.043Z,101231.88
2024-03-13T16:36:49.781Z,101252.81
2024-03-13T16:39:24.111Z,101246.38
2024-03-13T16:41:52.502Z,101247.16
2024-03-13T16:44:20.964Z,101260.06
2024-03-13T16:46:49.151Z,101266.91
2024-03-13T16:49:17.377Z,101260.88
2024-03-13T16:51:45.671Z,101260.88
2024-03-13T16:54:14.921Z,101266.09
2024-03-13T16:56:44.294Z,101278.19
2024-03-13T16:59:12.490Z,101276.59
2024-03-13T17:01:40.641Z,101272.94
2024-03-13T17:04:08.719Z,101272.16
2024-03-13T17:06:36.920Z,101285.47
2024-03-13T17:09:09.826Z,101277.78
2024-03-13T17:11:40.171Z,101283.00
2024-03-13T17:14:08.341Z,101292.25
2024-03-13T17:16:37.702Z,101286.63
2024-03-13T17:19:11.427Z,101288.25
2024-03-13T17:21:42.952Z,101289.44
2024-03-13T17:24:13.836Z,101290.25
2024-03-13T17:26:42.757Z,101295.47
2024-03-13T17:29:10.992Z,101287.81
2024-03-13T17:31:39.605Z,101295.41
2024-03-13T17:34:07.908Z,101290.63
2024-03-13T17:36:36.140Z,101291.44
2024-03-13T17:39:08.266Z,101294.63
2024-03-13T17:41:39.629Z,101292.25
2024-03-13T17:44:08.043Z,101294.63
2024-03-13T17:46:39.004Z,101298.22
2024-03-13T17:49:13.491Z,101302.66
2024-03-13T17:51:42.928Z,101297.81
2024-03-13T17:54:11.723Z,101308.66
2024-03-13T17:56:40.144Z,101307.44
2024-03-13T17:59:12.021Z,101308.25
2024-03-13T18:01:44.742Z,101305.81
2024-03-13T18:04:14.133Z,101309.84
2024-03-13T18:06:42.378Z,101308.66
2024-03-13T18:09:11.733Z,101309.44
2024-03-13T18:11:42.117Z,101306.59
2024-03-13T18:14:11.840Z,101309.44
2024-03-13T18:16:42.557Z,101302.94
2024-03-13T18:19:12.998Z,101311.41
2024-03-13T18:21:49.597Z,101308.16
2024-03-13T18:24:18.344Z,101316.22
2024-03-13T18:26:49.161Z,101314.22
2024-03-13T18:29:20.335Z,101318.66
2024-03-13T18:31:49.585Z,101316.22
2024-03-13T18:34:22.119Z,101307.31
2024-03-13T18:36:55.053Z,101304.06
2024-03-13T18:39:25.270Z,101308.91
2024-03-13T18:41:55.601Z,101312.16
2024-03-13T18:44:28.160Z,101309.72
2024-03-13T18:46:56.471Z,101304.88
2024-03-13T18:49:24.572Z,101305.69
2024-03-13T18:51:52.819Z,101311.38
2024-03-13T18:54:22.919Z,101304.94
2024-03-13T18:56:51.904Z,101303.34
2024-03-13T18:59:21.788Z,101303.78
2024-03-13T19:01:54.112Z,101307.03
2024-03-13T19:04:22.543Z,101305.81
2024-03-13T19:06:52.367Z,101311.06
2024-03-13T19:09:21.498Z,101307.88
2024-03-13T19:11:49.880Z,101313.94
2024-03-13T19:14:18.756Z,101317.19
2024-03-13T19:16:47.584Z,101318.38
2024-03-13T19:19:21.835Z,101317.19
2024-03-13T19:21:51.906Z,101318.81
2024-03-13T19:24:21.441Z,101310.78
2024-03-13T19:26:49.785Z,101310.78
2024-03-13T19:29:19.910Z,101309.97
2024-03-13T19:31:52.034Z,101310.78
2024-03-13T19:34:21.971Z,101320.06
2024-03-13T19:36:54.692Z,101316.84
2024-03-13T19:39:29.586Z,101325.31
2024-03-13T19:42:01.797Z,101310.00
2024-03-13T19:44:31.392Z,101320.88
2024-03-13T19:47:04.768Z,101305.13
2024-03-13T19:49:33.016Z,101327.69
2024-03-13T19:52:01.802Z,101316.03
2024-03-13T19:54:32.069Z,101323.69
2024-03-13T19:57:00.596Z,101314.81
2024-03-13T19:59:28.740Z,101325.31
2024-03-13T20:01:57.312Z,101323.69
2024-03-13T20:04:25.683Z,101325.31
2024-03-13T20:06:56.503Z,101319.66
2024-03-13T20:09:31.553Z,101316.84
2024-03-13T20:12:05.862Z,101321.66
2024-03-13T20:14:34.647Z,101319.66
2024-03-13T20:17:03.011Z,101325.31
2024-03-13T20:19:31.173Z,101322.06
2024-03-13T20:22:00.760Z,101313.22
2024-03-13T20:24:28.979Z,101327.69
2024-03-13T20:26:57.168Z,101319.66
2024-03-13T20:29:26.718Z,101318.03
2024-03-13T20:31:57.910Z,101314.00
2024-03-13T20:34:26.341Z,101321.25
2024-03-13T20:36:54.544Z,101323.69
2024-03-13T20:39:22.754Z,101322.06
2024-03-13T20:41:50.973Z,101310.78
2024-03-13T20:44:20.944Z,101318.81
2024-03-13T20:46:49.267Z,101303.53
2024-03-13T20:49:18.544Z,101300.25
2024-03-13T20:51:47.786Z,101300.25
2024-03-13T20:54:23.848Z,101303.53
2024-03-13T20:56:53.941Z,101303.06
2024-03-13T20:59:22.281Z,101305.53
2024-03-13T21:01:52.573Z,101300.69
2024-03-13T21:04:21.700Z,101297.81
2024-03-13T21:06:50.607Z,101297.41
2024-03-13T21:09:20.731Z,101293.81
2024-03-13T21:11:54.319Z,101287.34
2024-03-13T21:14:24.019Z,101291.38
2024-03-13T21:16:53.233Z,101285.75
2024-03-13T21:19:21.962Z,101294.63
2024-03-13T21:21:50.230Z,101287.34
2024-03-13T21:24:18.463Z,101295.41
2024-03-13T21:26:46.659Z,101291.78
2024-03-13T21:29:15.947Z,101286.53
2024-03-13T21:31:45.752Z,101284.94
2024-03-13T21:34:21.199Z,101289.75
2024-03-13T21:36:56.194Z,101284.53
2024-03-13T21:39:24.296Z,101282.53
2024-03-13T21:41:52.825Z,101288.97
2024-03-13T21:44:22.100Z,101284.13
2024-03-13T21:46:52.932Z,101292.25
2024-03-13T21:49:21.156Z,101283.72
2024-03-13T21:51:52.386Z,101287.34
2024-03-13T21:54:28.160Z,101288.56
2024-03-13T21:56:58.453Z,101283.34
2024-03-13T21:59:28.137Z,101293.00
2024-03-13T22:02:01.812Z,101301.91
2024-03-13T22:04:34.573Z,101297.06
2024-03-13T22:07:03.776Z,101293.00
2024-03-13T22:09:35.894Z,101293.00
2024-03-13T22:12:06.048Z,101292.19
2024-03-13T22:14:35.471Z,101296.63
2024-03-13T22:17:10.155Z,101287.34
2024-03-13T22:19:40.299Z,101283.31
2024-03-13T22:22:08.558Z,101285.75
2024-03-13T22:24:36.718Z,101284.53
2024-03-13T22:27:04.980Z,101289.75
2024-03-13T22:29:33.196Z,101289.75
2024-03-13T22:32:01.362Z,101286.53
2024-03-13T22:34:29.545Z,101280.09
2024-03-13T22:37:00.094Z,101284.13
2024-03-13T22:39:28.362Z,101278.47
2024-03-13T22:41:56.762Z,101284.13
2024-03-13T22:44:25.030Z,101288.16
2024-03-13T22:46:53.273Z,101295.41
2024-03-13T22:49:21.428Z,101264.66
2024-03-13T22:51:49.595Z,101280.03
2024-03-13T22:54:18.005Z,101284.13
2024-03-13T22:56:47.848Z,101291.38
2024-03-13T22:59:16.081Z,101290.97
2024-03-13T23:01:44.956Z,101285.75
2024-03-13T23:04:13.135Z,101294.59
2024-03-13T23:06:41.230Z,101295.41
2024-03-13T23:09:11.085Z,101286.53
2024-03-13T23:11:42.215Z,101286.53
2024-03-13T23:14:12.431Z,101288.94
2024-03-13T23:16:42.656Z,101289.75
2024-03-13T23:19:13.245Z,101295.41
2024-03-13T23:21:46.374Z,101288.16
2024-03-13T23:24:15.696Z,101288.56
2024-03-13T23:26:48.673Z,101287.34
2024-03-13T23:29:17.262Z,101287.34
2024-03-13T23:31:45.514Z,101285.75
2024-03-13T23:34:14.769Z,101297.03
2024-03-13T23:36:43.621Z,101293.38
2024-03-13T23:39:11.868Z,101295.81
2024-03-13T23:41:42.605Z,101288.16
2024-03-13T23:44:12.769Z,101286.50
2024-03-13T23:46:40.942Z,101290.97
2024-03-13T23:49:09.048Z,101280.09
2024-03-13T23:51:38.067Z,101284.94
2024-03-13T23:54:07.296Z,101284.94
2024-03-13T23:56:35.673Z,101288.16
2024-03-13T23:59:05.716Z,101284.13
